Time;durP1;ratioP1;P1;durP2;ratioP2;P2;SDS_P1;SDS_P2;PMS_P1;PMS_P2;Temp;Humidity;BMP_temperature;BMP_pressure;BME280_temperature;BME280_humidity;BME280_pressure;Samples;Min_cycle;Max_cycle;Signal;HPM_P1;HPM_P2
2023/12/04 00:00:32;;;;;;;1.20;1.17;;;-0.10;99.90;;;;;;5081566;28;20119;-82
2023/12/04 00:02:58;;;;;;;0.50;0.50;;;0.00;99.90;;;;;;5081475;28;20051;-83
2023/12/04 00:05:24;;;;;;;2.93;0.97;;;-0.10;99.90;;;;;;5080582;28;20162;-82
2023/12/04 00:07:49;;;;;;;3.47;1.38;;;-0.10;99.90;;;;;;5082543;28;20033;-83
2023/12/04 00:10:15;;;;;;;1.80;1.70;;;-0.10;99.90;;;;;;5086605;28;20092;-82
2023/12/04 00:12:40;;;;;;;1.25;0.63;;;0.00;99.90;;;;;;5086709;28;20112;-83
2023/12/04 00:15:07;;;;;;;0.90;0.90;;;0.00;99.90;;;;;;5086445;28;20048;-83
2023/12/04 00:17:32;;;;;;;0.63;0.63;;;-0.10;99.90;;;;;;5084954;28;20041;-82
2023/12/04 00:19:58;;;;;;;0.50;0.50;;;-0.10;99.90;;;;;;5085253;28;20124;-82
2023/12/04 00:22:24;;;;;;;0.73;0.73;;;-0.10;99.90;;;;;;5085238;28;20074;-82
2023/12/04 00:24:49;;;;;;;0.10;0.10;;;0.00;1.00;;;;;;5086489;28;20052;-82
2023/12/04 00:27:15;;;;;;;3.80;2.80;;;-0.10;99.90;;;;;;5086787;28;20106;-83
2023/12/04 00:29:41;;;;;;;0.20;0.20;;;-0.10;1.00;;;;;;5085546;28;20072;-83
2023/12/04 00:32:06;;;;;;;1.30;1.10;;;-0.10;74.60;;;;;;5086493;28;20037;-83
2023/12/04 00:34:32;;;;;;;5.53;3.03;;;-0.10;98.00;;;;;;5085737;28;20106;-83
2023/12/04 00:36:57;;;;;;;0.40;0.40;;;-0.10;99.90;;;;;;5085750;28;20054;-83
2023/12/04 00:39:23;;;;;;;2.27;2.00;;;-0.10;99.90;;;;;;5086308;28;20045;-83
2023/12/04 00:41:48;;;;;;;1.10;1.03;;;-0.10;99.90;;;;;;5085609;28;20092;-83
2023/12/04 00:44:14;;;;;;;0.75;0.73;;;-0.10;99.90;;;;;;5086001;28;20072;-83
2023/12/04 00:46:40;;;;;;;1.37;1.27;;;-0.10;99.90;;;;;;5086908;28;20510;-83
2023/12/04 00:49:05;;;;;;;0.73;0.60;;;-0.10;99.90;;;;;;5085235;28;20044;-83
2023/12/04 00:51:38;;;;;;;3.63;1.40;;;-0.10;83.20;;;;;;5086417;28;20051;-82
2023/12/04 00:54:04;;;;;;;1.40;1.30;;;-0.10;81.00;;;;;;5087513;28;20048;-83
2023/12/04 00:56:29;;;;;;;0.30;0.30;;;-0.10;73.40;;;;;;5085491;28;20527;-83
2023/12/04 00:58:55;;;;;;;0.87;0.87;;;-0.10;54.10;;;;;;5084569;28;20091;-83
2023/12/04 01:01:20;;;;;;;0.20;0.20;;;-0.10;36.10;;;;;;5085962;28;20139;-83
2023/12/04 01:03:46;;;;;;;0.90;0.90;;;-0.10;22.40;;;;;;5086704;28;20037;-82
2023/12/04 01:06:23;;;;;;;0.30;0.30;;;-0.10;13.00;;;;;;5087299;28;20043;-84
2023/12/04 01:08:50;;;;;;;1.43;1.30;;;-0.10;1.00;;;;;;5085091;28;20478;-83
2023/12/04 01:11:16;;;;;;;1.23;1.20;;;-0.10;1.00;;;;;;5086205;28;20490;-83
2023/12/04 01:13:42;;;;;;;0.20;0.20;;;-0.10;1.00;;;;;;5086420;28;20036;-83
2023/12/04 01:16:09;;;;;;;2.30;2.17;;;-0.10;1.00;;;;;;5086583;28;20120;-83
2023/12/04 01:18:34;;;;;;;0.90;0.90;;;-0.10;1.00;;;;;;5085412;28;20048;-83
2023/12/04 01:21:00;;;;;;;1.40;1.30;;;-0.10;1.00;;;;;;5084202;28;20070;-83
2023/12/04 01:23:26;;;;;;;0.33;0.33;;;-0.10;1.00;;;;;;5086542;28;20068;-84
2023/12/04 01:25:51;;;;;;;1.40;1.30;;;0.00;1.00;;;;;;5086413;28;20055;-84
2023/12/04 01:28:17;;;;;;;1.05;1.05;;;0.00;10.30;;;;;;5084530;28;20115;-83
2023/12/04 01:30:42;;;;;;;0.57;0.57;;;0.00;1.00;;;;;;5084484;28;20052;-83
2023/12/04 01:33:08;;;;;;;0.90;0.90;;;0.00;1.00;;;;;;5085747;28;20048;-85
2023/12/04 01:35:34;;;;;;;0.73;0.73;;;0.00;1.00;;;;;;5084939;28;20045;-84
2023/12/04 01:38:00;;;;;;;1.50;1.40;;;0.00;1.00;;;;;;5085191;28;20040;-83
2023/12/04 01:40:26;;;;;;;2.07;1.90;;;0.00;1.00;;;;;;5085264;28;20028;-83
2023/12/04 01:42:52;;;;;;;0.40;0.40;;;0.00;1.00;;;;;;5083733;28;20044;-83
2023/12/04 01:45:18;;;;;;;1.60;1.30;;;0.00;1.00;;;;;;5084663;28;20390;-84
2023/12/04 01:47:44;;;;;;;3.60;3.03;;;0.00;1.00;;;;;;5085148;28;20521;-83
2023/12/04 01:50:10;;;;;;;0.90;0.90;;;0.00;1.00;;;;;;5083326;28;20111;-84
2023/12/04 01:52:36;;;;;;;0.97;0.87;;;0.00;1.00;;;;;;5083096;28;20044;-84
2023/12/04 01:55:03;;;;;;;2.23;1.40;;;0.00;1.00;;;;;;5082811;28;20028;-84
2023/12/04 01:57:28;;;;;;;0.80;0.80;;;0.00;1.00;;;;;;5064533;28;20066;-83
2023/12/04 01:59:54;;;;;;;1.98;1.73;;;0.00;1.00;;;;;;5066493;28;20045;-84
2023/12/04 02:02:20;;;;;;;0.37;0.37;;;0.00;1.00;;;;;;5083190;28;20044;-84
2023/12/04 02:04:46;;;;;;;1.43;1.33;;;0.00;1.00;;;;;;5065976;28;20036;-85
2023/12/04 02:07:11;;;;;;;1.53;1.43;;;0.00;99.90;;;;;;5083466;28;20047;-84
2023/12/04 02:09:37;;;;;;;0.17;0.17;;;0.00;1.00;;;;;;5083676;28;20398;-84
2023/12/04 02:12:03;;;;;;;0.30;0.30;;;0.00;66.70;;;;;;5082426;28;20104;-84
2023/12/04 02:14:29;;;;;;;2.27;2.07;;;0.00;99.90;;;;;;5082993;28;20044;-84
2023/12/04 02:16:57;;;;;;;0.20;0.20;;;0.00;99.90;;;;;;5081353;28;20123;-85
2023/12/04 02:19:23;;;;;;;0.70;0.70;;;0.00;99.90;;;;;;5082540;28;20124;-85
2023/12/04 02:21:48;;;;;;;0.20;0.20;;;0.10;99.90;;;;;;5082739;28;20040;-84
2023/12/04 02:24:14;;;;;;;0.50;0.50;;;0.10;99.90;;;;;;5083015;28;20043;-84
2023/12/04 02:26:51;;;;;;;1.27;1.17;;;0.10;99.90;;;;;;5081113;28;20076;-83
2023/12/04 02:29:23;;;;;;;13.27;3.13;;;0.00;1.00;;;;;;5081531;28;20044;-85
2023/12/04 02:31:51;;;;;;;2.00;1.10;;;0.10;1.00;;;;;;5061539;28;20079;-86
2023/12/04 02:34:18;;;;;;;22.60;2.07;;;0.10;88.20;;;;;;5080365;28;20498;-84
2023/12/04 02:36:44;;;;;;;0.97;0.83;;;0.00;99.90;;;;;;5080001;28;20049;-85
2023/12/04 02:39:10;;;;;;;0.50;0.50;;;0.20;99.90;;;;;;5079920;28;20135;-84
2023/12/04 02:41:35;;;;;;;1.20;1.00;;;0.10;99.90;;;;;;5080598;28;20087;-85
2023/12/04 02:44:01;;;;;;;2.37;1.80;;;0.10;99.90;;;;;;5080704;28;20075;-85
2023/12/04 02:46:26;;;;;;;4.07;1.47;;;0.10;99.90;;;;;;5080104;28;20040;-86
2023/12/04 02:48:52;;;;;;;0.13;0.13;;;0.10;99.90;;;;;;5080988;28;20044;-85
2023/12/04 02:51:17;;;;;;;0.43;0.43;;;0.20;99.90;;;;;;5080785;28;20041;-85
2023/12/04 02:53:43;;;;;;;0.40;0.40;;;0.20;99.90;;;;;;5063168;28;20044;-85
2023/12/04 02:56:09;;;;;;;0.37;0.37;;;0.20;99.90;;;;;;5080987;28;20095;-84
2023/12/04 02:58:35;;;;;;;0.20;0.20;;;0.10;99.90;;;;;;5080710;28;20067;-85
2023/12/04 03:01:00;;;;;;;0.70;0.70;;;-1.00;1.00;;;;;;5081111;28;20037;-84
2023/12/04 03:03:26;;;;;;;0.30;0.30;;;0.10;1.00;;;;;;5080656;28;20097;-85
2023/12/04 03:05:51;;;;;;;1.33;1.10;;;0.10;1.00;;;;;;5082439;28;20151;-85
2023/12/04 03:08:17;;;;;;;2.00;1.90;;;0.10;1.00;;;;;;5079628;28;20096;-84
2023/12/04 03:10:43;;;;;;;0.30;0.30;;;0.10;1.00;;;;;;5078934;28;20056;-84
2023/12/04 03:13:08;;;;;;;1.05;0.60;;;0.10;1.00;;;;;;5079330;28;20417;-84
2023/12/04 03:15:34;;;;;;;1.23;1.20;;;0.10;1.00;;;;;;5081413;28;20048;-85
2023/12/04 03:18:00;;;;;;;2.33;1.03;;;0.10;1.00;;;;;;5080125;28;20044;-85
2023/12/04 03:20:26;;;;;;;0.45;0.45;;;0.10;1.00;;;;;;5080631;28;20037;-85
2023/12/04 03:22:52;;;;;;;0.40;0.40;;;0.10;1.00;;;;;;5081179;28;20072;-85
2023/12/04 03:25:17;;;;;;;0.35;0.35;;;0.10;1.00;;;;;;5079858;28;20490;-85
2023/12/04 03:27:43;;;;;;;1.67;1.57;;;0.10;1.00;;;;;;5079049;28;20036;-85
2023/12/04 03:30:09;;;;;;;0.30;0.30;;;0.10;1.00;;;;;;5080009;28;20597;-84
2023/12/04 03:32:35;;;;;;;0.70;0.70;;;0.10;1.00;;;;;;5080391;28;20036;-85
2023/12/04 03:35:01;;;;;;;4.25;3.85;;;0.10;1.00;;;;;;5079125;28;20462;-85
2023/12/04 03:37:26;;;;;;;0.10;0.10;;;0.10;1.00;;;;;;5079974;28;20048;-85
2023/12/04 03:39:52;;;;;;;2.03;1.10;;;0.10;1.00;;;;;;5079847;28;20052;-85
2023/12/04 03:42:18;;;;;;;1.27;1.17;;;0.10;1.00;;;;;;5079798;28;20047;-84
2023/12/04 03:44:43;;;;;;;0.40;0.40;;;0.10;1.00;;;;;;5077633;28;20036;-85
2023/12/04 03:47:09;;;;;;;0.43;0.43;;;0.20;1.00;;;;;;5078203;28;20486;-85
2023/12/04 03:49:34;;;;;;;2.07;1.97;;;0.20;1.10;;;;;;5078152;28;20032;-85
2023/12/04 03:52:00;;;;;;;0.30;0.30;;;0.20;10.20;;;;;;5079621;28;20090;-85
2023/12/04 03:54:25;;;;;;;4.47;2.10;;;0.30;14.50;;;;;;5080768;28;20036;-85
2023/12/04 03:56:51;;;;;;;1.93;1.83;;;0.20;15.40;;;;;;5080967;28;20136;-85
2023/12/04 03:59:16;;;;;;;2.38;2.17;;;0.20;17.30;;;;;;5081170;28;20044;-85
2023/12/04 04:01:42;;;;;;;0.23;0.23;;;0.20;20.80;;;;;;5081398;28;20040;-84
2023/12/04 04:04:08;;;;;;;0.70;0.70;;;0.20;21.80;;;;;;5080468;28;20123;-85
2023/12/04 04:06:34;;;;;;;0.77;0.77;;;0.20;22.80;;;;;;5080106;28;20040;-85
2023/12/04 04:08:59;;;;;;;1.10;1.03;;;0.20;23.60;;;;;;5079733;28;20391;-84
2023/12/04 04:11:25;;;;;;;0.27;0.27;;;0.20;24.30;;;;;;5079388;28;20440;-85
2023/12/04 04:13:50;;;;;;;1.47;1.20;;;0.20;25.50;;;;;;5079153;28;20046;-85
2023/12/04 04:16:16;;;;;;;2.20;0.73;;;0.20;26.30;;;;;;5061432;28;20048;-85
2023/12/04 04:18:43;;;;;;;0.32;0.32;;;0.20;27.80;;;;;;5077665;28;20080;-87
2023/12/04 04:21:08;;;;;;;1.02;0.75;;;0.20;27.50;;;;;;5076615;28;20040;-85
2023/12/04 04:23:34;;;;;;;0.27;0.27;;;0.20;29.20;;;;;;5077184;28;20040;-85
2023/12/04 04:26:00;;;;;;;1.55;1.45;;;0.20;28.60;;;;;;5077020;28;20045;-86
2023/12/04 04:28:25;;;;;;;0.20;0.20;;;0.20;33.30;;;;;;5077938;28;20493;-85
2023/12/04 04:30:51;;;;;;;0.10;0.10;;;0.20;31.00;;;;;;5078697;28;20040;-85
2023/12/04 04:33:17;;;;;;;0.63;0.63;;;0.10;29.20;;;;;;5076864;28;20048;-86
2023/12/04 04:35:43;;;;;;;3.30;0.87;;;0.20;28.50;;;;;;5076799;28;20076;-86
2023/12/04 04:38:09;;;;;;;0.43;0.43;;;0.20;32.50;;;;;;5079006;28;20040;-86
2023/12/04 04:40:35;;;;;;;1.80;1.70;;;0.20;33.00;;;;;;5078780;28;20124;-86
2023/12/04 04:43:00;;;;;;;2.80;2.00;;;0.20;33.30;;;;;;5077910;28;20083;-86
2023/12/04 04:45:26;;;;;;;0.70;0.63;;;0.20;35.20;;;;;;5077952;28;20060;-85
2023/12/04 04:47:51;;;;;;;0.70;0.70;;;0.30;39.40;;;;;;5077735;28;20040;-85
2023/12/04 04:50:17;;;;;;;0.10;0.10;;;0.20;44.80;;;;;;5079528;28;20048;-86
2023/12/04 04:52:43;;;;;;;0.20;0.20;;;0.20;45.00;;;;;;5079801;28;20040;-86
2023/12/04 04:55:08;;;;;;;0.43;0.43;;;0.20;45.50;;;;;;5081654;28;20032;-86
2023/12/04 04:57:34;;;;;;;0.73;0.73;;;1.10;48.60;;;;;;5082862;28;20052;-85
2023/12/04 04:59:59;;;;;;;1.13;1.10;;;0.20;46.00;;;;;;5083802;28;20040;-85
2023/12/04 05:02:25;;;;;;;0.43;0.43;;;0.20;44.10;;;;;;5082463;28;20041;-86
2023/12/04 05:04:50;;;;;;;1.53;0.90;;;0.10;41.40;;;;;;5082791;28;20040;-86
2023/12/04 05:07:16;;;;;;;0.47;0.47;;;0.10;40.40;;;;;;5084231;28;20390;-86
2023/12/04 05:09:42;;;;;;;1.40;1.13;;;0.10;39.10;;;;;;5082829;28;20032;-86
2023/12/04 05:12:07;;;;;;;0.30;0.30;;;0.10;38.40;;;;;;5082791;28;20048;-86
2023/12/04 05:14:33;;;;;;;0.40;0.40;;;0.10;38.70;;;;;;5084062;28;20072;-86
2023/12/04 05:16:59;;;;;;;0.43;0.43;;;0.10;39.60;;;;;;5082817;28;20043;-86
2023/12/04 05:19:24;;;;;;;1.30;0.73;;;0.10;41.60;;;;;;5083427;28;20154;-86
2023/12/04 05:21:50;;;;;;;0.63;0.63;;;0.10;45.30;;;;;;5082475;28;20119;-86
2023/12/04 05:24:15;;;;;;;2.97;1.03;;;0.10;44.20;;;;;;5084303;28;20068;-86
2023/12/04 05:26:41;;;;;;;0.52;0.47;;;0.10;44.20;;;;;;5082254;28;20032;-86
2023/12/04 05:29:07;;;;;;;4.30;3.93;;;0.10;43.70;;;;;;5081241;28;20098;-86
2023/12/04 05:31:32;;;;;;;0.97;0.97;;;0.10;43.20;;;;;;5081098;28;20045;-86
2023/12/04 05:33:58;;;;;;;0.17;0.17;;;0.10;44.20;;;;;;5081593;28;20066;-85
2023/12/04 05:36:23;;;;;;;1.25;1.17;;;0.10;46.00;;;;;;5063957;28;20128;-86
2023/12/04 05:38:49;;;;;;;1.27;1.17;;;0.10;46.30;;;;;;5081961;28;20098;-86
2023/12/04 05:41:14;;;;;;;0.85;0.85;;;0.10;46.40;;;;;;5081863;28;20044;-86
2023/12/04 05:43:40;;;;;;;0.10;0.10;;;0.20;47.80;;;;;;5082754;28;20048;-85
2023/12/04 05:46:05;;;;;;;1.17;0.73;;;0.10;50.20;;;;;;5084253;28;20444;-86
2023/12/04 05:48:31;;;;;;;11.15;1.02;;;0.20;50.40;;;;;;5083921;28;20040;-86
2023/12/04 05:50:57;;;;;;;0.30;0.30;;;0.20;52.20;;;;;;5083677;28;20063;-87
2023/12/04 05:53:22;;;;;;;1.80;1.70;;;0.30;56.80;;;;;;5082137;28;20553;-86
2023/12/04 05:55:48;;;;;;;0.10;0.10;;;0.20;59.80;;;;;;5083677;28;20033;-86
2023/12/04 05:58:14;;;;;;;0.40;0.40;;;0.20;58.80;;;;;;5083288;28;20049;-86
2023/12/04 06:00:40;;;;;;;0.93;0.93;;;0.20;59.80;;;;;;5083003;28;20051;-86
2023/12/04 06:03:06;;;;;;;1.70;0.83;;;0.20;59.30;;;;;;5081304;28;20044;-86
2023/12/04 06:05:31;;;;;;;0.77;0.77;;;0.20;58.60;;;;;;5079628;28;20401;-86
2023/12/04 06:07:57;;;;;;;2.33;1.60;;;0.30;62.40;;;;;;5081228;28;20438;-86
2023/12/04 06:10:23;;;;;;;0.35;0.35;;;0.30;63.50;;;;;;5079902;28;20050;-86
2023/12/04 06:12:49;;;;;;;0.40;0.40;;;0.30;64.10;;;;;;5080310;28;20041;-86
2023/12/04 06:15:14;;;;;;;0.30;0.30;;;0.20;63.60;;;;;;5079450;28;20032;-86
2023/12/04 06:17:40;;;;;;;0.53;0.53;;;0.20;63.70;;;;;;5078192;28;20490;-85
2023/12/04 06:20:06;;;;;;;0.73;0.60;;;0.30;64.00;;;;;;5078149;28;20069;-86
2023/12/04 06:22:32;;;;;;;0.33;0.33;;;0.20;64.00;;;;;;5078467;28;20040;-86
2023/12/04 06:24:58;;;;;;;0.20;0.20;;;0.20;61.90;;;;;;5077025;28;20041;-85
2023/12/04 06:27:24;;;;;;;0.00;0.00;;;0.20;61.80;;;;;;5075485;28;20033;-86
2023/12/04 06:29:50;;;;;;;0.97;0.97;;;0.20;61.20;;;;;;5073371;28;20032;-85
2023/12/04 06:32:16;;;;;;;1.30;1.20;;;0.20;61.30;;;;;;5075240;28;20130;-86
2023/12/04 06:34:42;;;;;;;0.73;0.70;;;0.30;59.40;;;;;;5062581;28;20162;-85
2023/12/04 06:37:12;;;;;;;0.53;0.53;;;0.20;58.50;;;;;;5079862;28;20066;-86
2023/12/04 06:39:39;;;;;;;1.92;1.83;;;1.00;58.60;;;;;;5078039;28;20049;-85
2023/12/04 06:42:06;;;;;;;0.67;0.67;;;0.30;57.20;;;;;;5078904;28;20041;-85
2023/12/04 06:44:32;;;;;;;1.95;1.83;;;0.30;57.10;;;;;;5076392;28;20032;-86
2023/12/04 06:47:00;;;;;;;4.30;1.02;;;0.30;55.40;;;;;;5069451;28;20439;-86
2023/12/04 06:49:29;;;;;;;1.23;0.97;;;0.20;53.00;;;;;;5075362;28;20474;-86
2023/12/04 06:51:55;;;;;;;1.80;1.60;;;0.30;50.40;;;;;;5065557;28;20406;-86
2023/12/04 06:54:21;;;;;;;1.00;0.40;;;0.20;45.00;;;;;;5073564;28;20123;-85
2023/12/04 06:56:46;;;;;;;2.53;1.40;;;0.20;41.70;;;;;;5072702;28;20056;-85
2023/12/04 06:59:12;;;;;;;2.67;2.47;;;0.20;38.40;;;;;;5073295;28;20040;-85
2023/12/04 07:01:38;;;;;;;0.63;0.63;;;0.20;31.60;;;;;;5073138;28;20032;-85
2023/12/04 07:04:09;;;;;;;2.60;1.40;;;0.10;29.20;;;;;;5073068;28;20036;-86
2023/12/04 07:06:36;;;;;;;1.13;0.93;;;0.10;26.20;;;;;;5073465;28;20135;-85
2023/12/04 07:09:02;;;;;;;1.75;1.65;;;0.10;22.40;;;;;;5073120;28;20452;-85
2023/12/04 07:11:28;;;;;;;0.80;0.80;;;0.10;17.80;;;;;;5073171;28;20056;-85
2023/12/04 07:13:53;;;;;;;0.57;0.57;;;0.10;12.70;;;;;;5071119;28;20127;-86
2023/12/04 07:16:19;;;;;;;7.88;3.10;;;0.00;7.40;;;;;;5070230;28;20380;-86
2023/12/04 07:18:45;;;;;;;4.27;1.23;;;0.00;2.60;;;;;;5069836;28;20035;-86
2023/12/04 07:21:11;;;;;;;1.50;1.40;;;-0.10;1.00;;;;;;5069946;28;20098;-86
2023/12/04 07:23:37;;;;;;;1.43;1.33;;;0.00;1.00;;;;;;5068313;28;20044;-86
2023/12/04 07:26:03;;;;;;;9.63;2.33;;;-0.10;1.00;;;;;;5069102;28;20052;-86
2023/12/04 07:28:29;;;;;;;2.57;2.37;;;-0.10;1.00;;;;;;5069997;28;20502;-86
2023/12/04 07:30:55;;;;;;;0.43;0.43;;;0.00;1.00;;;;;;5069944;28;20071;-86
2023/12/04 07:33:21;;;;;;;0.90;0.67;;;0.00;1.00;;;;;;5070142;28;20047;-86
2023/12/04 07:35:47;;;;;;;0.43;0.43;;;0.00;1.00;;;;;;5070416;28;20352;-85
2023/12/04 07:38:12;;;;;;;1.10;0.73;;;-0.10;1.00;;;;;;5069932;28;20048;-85
2023/12/04 07:40:38;;;;;;;0.17;0.17;;;-0.10;1.00;;;;;;5069827;28;20131;-85
2023/12/04 07:43:04;;;;;;;1.47;1.37;;;-0.10;1.00;;;;;;5069906;28;20074;-85
2023/12/04 07:45:29;;;;;;;3.00;1.53;;;0.00;1.00;;;;;;5069715;28;20052;-85
2023/12/04 07:47:55;;;;;;;1.17;1.03;;;0.00;99.90;;;;;;5070062;28;20066;-85
2023/12/04 07:50:21;;;;;;;0.65;0.65;;;0.00;99.90;;;;;;5068795;28;20411;-85
2023/12/04 07:52:46;;;;;;;1.27;1.17;;;0.10;99.90;;;;;;5068133;28;20048;-85
2023/12/04 07:55:12;;;;;;;0.40;0.40;;;0.10;99.90;;;;;;5069529;28;20095;-85
2023/12/04 07:57:38;;;;;;;0.77;0.77;;;0.20;99.90;;;;;;5069730;28;20454;-85
2023/12/04 08:00:04;;;;;;;0.85;0.85;;;0.20;95.10;;;;;;5069069;28;20086;-85
2023/12/04 08:02:30;;;;;;;6.50;2.70;;;0.30;1.00;;;;;;5068233;28;20045;-85
2023/12/04 08:04:56;;;;;;;0.60;0.60;;;0.20;99.90;;;;;;5068802;28;20090;-83
2023/12/04 08:07:21;;;;;;;0.20;0.20;;;0.30;99.90;;;;;;5068459;28;20315;-85
2023/12/04 08:09:47;;;;;;;0.40;0.40;;;0.30;99.90;;;;;;5068423;28;20045;-85
2023/12/04 08:12:12;;;;;;;0.70;0.65;;;0.30;1.00;;;;;;5059652;28;20040;-85
2023/12/04 08:14:38;;;;;;;4.10;1.10;;;0.30;99.90;;;;;;5066820;28;20101;-85
2023/12/04 08:17:04;;;;;;;0.50;0.50;;;0.30;99.90;;;;;;5068743;28;20047;-85
2023/12/04 08:19:29;;;;;;;0.77;0.77;;;0.30;99.90;;;;;;5068292;28;20089;-85
2023/12/04 08:21:55;;;;;;;0.43;0.43;;;0.30;85.00;;;;;;5068562;28;20401;-85
2023/12/04 08:24:21;;;;;;;2.60;2.33;;;0.40;3.90;;;;;;5069880;28;20075;-85
2023/12/04 08:26:46;;;;;;;0.33;0.33;;;0.40;26.50;;;;;;5069477;28;20149;-85
2023/12/04 08:29:12;;;;;;;1.13;0.95;;;0.30;1.00;;;;;;5070767;28;20045;-85
2023/12/04 08:31:38;;;;;;;0.20;0.20;;;0.40;1.00;;;;;;5074078;28;20051;-85
2023/12/04 08:34:04;;;;;;;0.20;0.20;;;0.40;99.90;;;;;;5073915;28;20048;-85
2023/12/04 08:36:29;;;;;;;0.77;0.77;;;0.40;99.90;;;;;;5073893;28;20162;-85
2023/12/04 08:38:55;;;;;;;0.53;0.53;;;0.40;99.90;;;;;;5073980;28;20127;-85
2023/12/04 08:41:21;;;;;;;0.37;0.37;;;0.40;1.00;;;;;;5073336;28;20041;-85
2023/12/04 08:43:46;;;;;;;0.27;0.27;;;0.40;1.00;;;;;;5073470;28;20036;-85
2023/12/04 08:46:14;;;;;;;2.53;1.80;;;0.50;99.90;;;;;;5072607;28;20056;-85
2023/12/04 08:48:41;;;;;;;0.57;0.57;;;0.40;1.00;;;;;;5073992;28;20120;-85
2023/12/04 08:51:08;;;;;;;1.43;1.33;;;0.40;99.90;;;;;;5074576;28;20044;-85
2023/12/04 08:53:34;;;;;;;1.40;1.30;;;0.50;91.00;;;;;;5073948;28;20072;-85
2023/12/04 08:55:59;;;;;;;2.20;1.90;;;0.50;99.90;;;;;;5073893;28;20056;-85
2023/12/04 08:58:25;;;;;;;0.50;0.50;;;0.50;1.00;;;;;;5073069;28;20126;-85
2023/12/04 09:00:51;;;;;;;0.20;0.20;;;0.50;1.00;;;;;;5073011;28;20056;-85
2023/12/04 09:03:16;;;;;;;0.10;0.10;;;0.60;1.00;;;;;;5071661;28;20398;-85
2023/12/04 09:05:42;;;;;;;0.13;0.13;;;0.50;99.90;;;;;;5072835;28;20134;-85
2023/12/04 09:08:08;;;;;;;0.15;0.15;;;0.60;99.90;;;;;;5072936;28;20052;-85
2023/12/04 09:10:33;;;;;;;0.20;0.20;;;0.60;99.90;;;;;;5072786;28;20518;-84
2023/12/04 09:12:59;;;;;;;1.83;0.90;;;0.60;99.90;;;;;;5071125;28;20119;-85
2023/12/04 09:15:25;;;;;;;0.40;0.40;;;0.60;99.90;;;;;;5071727;28;20067;-85
2023/12/04 09:17:50;;;;;;;1.50;0.93;;;0.60;58.40;;;;;;5072832;28;20040;-85
2023/12/04 09:20:16;;;;;;;0.83;0.83;;;0.70;1.00;;;;;;5072441;28;20494;-85
2023/12/04 09:22:42;;;;;;;0.70;0.70;;;0.70;1.00;;;;;;5072854;28;20109;-85
2023/12/04 09:25:08;;;;;;;0.57;0.57;;;0.80;99.90;;;;;;5072772;28;20053;-84
2023/12/04 09:27:34;;;;;;;1.03;1.03;;;0.80;99.90;;;;;;5071715;28;20417;-84
2023/12/04 09:30:00;;;;;;;1.03;1.03;;;0.80;99.90;;;;;;5072263;28;20032;-85
2023/12/04 09:32:26;;;;;;;1.30;0.50;;;0.90;99.90;;;;;;5072403;28;20052;-85
2023/12/04 09:34:51;;;;;;;0.93;0.87;;;0.90;99.90;;;;;;5072445;28;20040;-85
2023/12/04 09:37:17;;;;;;;0.00;0.00;;;0.90;99.90;;;;;;5072176;28;20044;-85
2023/12/04 09:39:42;;;;;;;1.38;0.55;;;0.90;99.90;;;;;;5070356;28;20401;-86
2023/12/04 09:42:10;;;;;;;0.00;0.00;;;1.00;99.90;;;;;;5072640;28;20037;-85
2023/12/04 09:44:36;;;;;;;1.17;0.67;;;1.00;99.90;;;;;;5071605;28;20048;-85
2023/12/04 09:47:04;;;;;;;1.77;1.67;;;1.00;99.90;;;;;;5070843;28;20044;-86
2023/12/04 09:49:31;;;;;;;0.40;0.40;;;1.00;96.90;;;;;;5070340;28;20098;-85
2023/12/04 09:52:01;;;;;;;0.27;0.23;;;1.10;89.40;;;;;;5070613;28;20044;-86
2023/12/04 09:54:27;;;;;;;0.83;0.83;;;1.10;33.20;;;;;;5071629;28;20398;-86
2023/12/04 09:56:52;;;;;;;0.13;0.13;;;1.80;2.90;;;;;;5072067;28;20055;-85
2023/12/04 09:59:20;;;;;;;0.20;0.20;;;1.10;18.10;;;;;;5070284;28;20044;-86
2023/12/04 10:01:47;;;;;;;0.87;0.87;;;1.10;20.40;;;;;;5070444;28;20048;-86
2023/12/04 10:04:12;;;;;;;2.00;0.60;;;1.10;1.00;;;;;;5071585;28;20055;-86
2023/12/04 10:06:38;;;;;;;0.88;0.88;;;1.20;1.00;;;;;;5070087;28;20049;-86
2023/12/04 10:09:04;;;;;;;0.40;0.40;;;1.20;1.00;;;;;;5071258;28;20414;-86
2023/12/04 10:11:30;;;;;;;1.43;1.03;;;1.30;1.00;;;;;;5071577;28;20385;-86
2023/12/04 10:13:56;;;;;;;1.50;0.63;;;1.30;1.00;;;;;;5071526;28;20172;-86
2023/12/04 10:16:35;;;;;;;0.35;0.35;;;1.30;1.00;;;;;;5071322;28;20127;-86
2023/12/04 10:19:18;;;;;;;3.83;1.97;;;1.30;1.00;;;;;;5070208;28;20040;-86
2023/12/04 10:21:48;;;;;;;0.40;0.40;;;1.40;1.00;;;;;;5071752;28;20545;-86
2023/12/04 10:24:35;;;;;;;0.40;0.40;;;1.40;1.00;;;;;;5071359;28;20503;-86
2023/12/04 10:27:04;;;;;;;0.43;0.43;;;1.40;1.00;;;;;;5071358;28;20124;-86
2023/12/04 10:29:42;;;;;;;1.60;0.43;;;1.40;1.00;;;;;;5063145;28;20439;-86
2023/12/04 10:32:07;;;;;;;0.27;0.27;;;1.40;1.00;;;;;;5069685;28;20052;-86
2023/12/04 10:34:33;;;;;;;0.30;0.30;;;1.30;1.00;;;;;;5052658;28;20090;-86
2023/12/04 10:36:59;;;;;;;0.00;0.00;;;1.30;1.00;;;;;;5071531;28;20047;-86
2023/12/04 10:39:28;;;;;;;0.37;0.37;;;1.30;1.00;;;;;;5071177;28;20040;-86
2023/12/04 10:42:03;;;;;;;0.20;0.20;;;1.20;1.00;;;;;;5072665;28;20591;-86
2023/12/04 10:44:31;;;;;;;0.85;0.73;;;1.30;1.00;;;;;;5072261;28;20055;-86
2023/12/04 10:46:58;;;;;;;0.00;0.00;;;1.20;1.00;;;;;;5073806;28;20047;-86
2023/12/04 10:49:29;;;;;;;0.45;0.45;;;1.20;1.00;;;;;;5073437;28;20094;-86
2023/12/04 10:51:57;;;;;;;0.93;0.85;;;1.20;1.00;;;;;;5064422;28;20028;-86
2023/12/04 10:54:23;;;;;;;5.97;2.33;;;1.20;1.00;;;;;;5073171;28;20048;-86
2023/12/04 10:56:53;;;;;;;0.13;0.13;;;1.30;1.00;;;;;;5073451;28;20063;-86
2023/12/04 10:59:25;;;;;;;0.40;0.40;;;1.30;1.00;;;;;;5073019;28;20055;-86
2023/12/04 11:01:54;;;;;;;0.20;0.20;;;1.30;1.00;;;;;;5073454;28;20094;-86
2023/12/04 11:04:23;;;;;;;1.07;0.87;;;1.30;1.00;;;;;;5073157;28;20094;-86
2023/12/04 11:06:52;;;;;;;0.27;0.27;;;1.40;1.00;;;;;;5072990;28;20097;-87
2023/12/04 11:09:20;;;;;;;0.00;0.00;;;1.40;1.00;;;;;;5073130;28;20169;-86
2023/12/04 11:11:50;;;;;;;0.40;0.40;;;1.50;1.00;;;;;;5072559;28;20469;-87
2023/12/04 11:14:22;;;;;;;1.27;0.90;;;1.50;1.00;;;;;;5065246;28;20398;-87
2023/12/04 11:16:50;;;;;;;1.07;0.33;;;1.60;1.00;;;;;;5072099;28;20429;-87
2023/12/04 11:19:39;;;;;;;0.47;0.43;;;1.70;1.00;;;;;;5072751;28;20044;-87
2023/12/04 11:22:07;;;;;;;0.20;0.20;;;1.70;1.00;;;;;;5072148;28;20405;-87
2023/12/04 11:24:34;;;;;;;1.17;1.13;;;1.80;1.00;;;;;;5073147;28;20520;-87
2023/12/04 11:27:00;;;;;;;1.80;1.05;;;1.90;1.00;;;;;;5073226;28;20043;-87
2023/12/04 11:29:27;;;;;;;0.45;0.45;;;2.00;99.90;;;;;;5071552;28;20555;-87
2023/12/04 11:31:53;;;;;;;0.70;0.70;;;2.00;99.90;;;;;;5070595;28;20055;-87
2023/12/04 11:34:19;;;;;;;0.55;0.55;;;1.90;99.90;;;;;;5070796;28;20041;-87
2023/12/04 11:36:44;;;;;;;1.38;1.13;;;1.90;99.90;;;;;;5071292;28;20037;-87
2023/12/04 11:39:11;;;;;;;0.43;0.43;;;1.90;99.90;;;;;;5071825;28;20040;-87
2023/12/04 11:41:37;;;;;;;1.67;0.85;;;1.90;99.90;;;;;;5070588;28;20051;-88
2023/12/04 11:44:03;;;;;;;0.10;0.10;;;1.80;99.90;;;;;;5070678;28;20056;-88
2023/12/04 11:46:30;;;;;;;0.45;0.45;;;1.90;99.90;;;;;;5070156;28;20136;-87
2023/12/04 11:49:25;;;;;;;0.10;0.10;;;1.80;99.90;;;;;;5069285;28;20048;-88
2023/12/04 11:51:52;;;;;;;1.23;0.87;;;1.90;99.90;;;;;;5052960;28;20481;-87
2023/12/04 11:54:19;;;;;;;0.05;0.05;;;1.90;99.90;;;;;;5070672;28;20044;-87
2023/12/04 11:57:09;;;;;;;0.20;0.20;;;1.90;99.90;;;;;;5072137;28;20032;-87
2023/12/04 11:59:37;;;;;;;5.80;0.60;;;2.00;99.90;;;;;;5071749;28;20058;-88
2023/12/04 12:02:10;;;;;;;0.33;0.33;;;1.90;99.90;;;;;;5071947;28;20115;-87
2023/12/04 12:04:37;;;;;;;0.30;0.30;;;2.00;99.90;;;;;;5078026;28;20045;-88
2023/12/04 12:07:05;;;;;;;0.60;0.60;;;2.00;99.90;;;;;;5079206;28;20105;-88
2023/12/04 12:09:34;;;;;;;0.73;0.47;;;2.00;99.90;;;;;;5079516;28;20044;-88
2023/12/04 12:12:04;;;;;;;0.67;0.43;;;2.00;99.90;;;;;;5077987;28;20482;-88
2023/12/04 12:14:30;;;;;;;0.70;0.70;;;2.00;99.90;;;;;;5079154;28;20044;-88
2023/12/04 12:16:57;;;;;;;0.10;0.10;;;2.00;99.90;;;;;;5079442;28;20048;-89
2023/12/04 12:19:22;;;;;;;0.07;0.07;;;2.10;99.90;;;;;;5078127;28;20512;-89
2023/12/04 12:21:51;;;;;;;1.23;1.00;;;2.20;99.90;;;;;;5079298;28;20044;-88
2023/12/04 12:24:18;;;;;;;2.10;0.77;;;2.30;99.90;;;;;;5079436;28;20051;-88
2023/12/04 12:26:44;;;;;;;0.73;0.33;;;2.40;99.90;;;;;;5079538;28;20436;-88
2023/12/04 12:29:11;;;;;;;0.50;0.50;;;2.40;99.90;;;;;;5079411;28;20051;-88
2023/12/04 12:31:36;;;;;;;0.40;0.40;;;2.50;99.90;;;;;;5079557;28;20041;-88
2023/12/04 12:34:02;;;;;;;1.17;0.70;;;2.50;99.90;;;;;;5079300;28;20290;-88
2023/12/04 12:36:28;;;;;;;0.37;0.37;;;2.50;99.90;;;;;;5077866;28;20079;-89
2023/12/04 12:38:54;;;;;;;0.10;0.10;;;2.50;99.90;;;;;;5079197;28;20079;-88
2023/12/04 12:41:20;;;;;;;0.08;0.08;;;2.50;99.90;;;;;;5078767;28;20048;-88
2023/12/04 12:43:47;;;;;;;0.20;0.20;;;2.40;99.90;;;;;;5078999;28;20486;-88
2023/12/04 12:46:12;;;;;;;1.20;1.10;;;2.40;99.90;;;;;;5079204;28;20052;-88
2023/12/04 12:48:38;;;;;;;0.47;0.47;;;2.30;99.90;;;;;;5078757;28;20051;-87
2023/12/04 12:51:04;;;;;;;0.30;0.30;;;2.20;99.90;;;;;;5078830;28;20037;-87
2023/12/04 12:53:32;;;;;;;0.60;0.60;;;2.30;99.90;;;;;;5078935;28;20040;-88
2023/12/04 12:56:00;;;;;;;0.83;0.73;;;2.20;99.90;;;;;;5078979;28;20032;-88